createdAt,value
2018-12-12T00:00:20.924Z,6.10
2018-12-12T00:02:49.315Z,6.10
2018-12-12T00:05:17.723Z,6.10
2018-12-12T00:07:46.103Z,6.10
2018-12-12T00:10:19.557Z,6.10
2018-12-12T00:12:49.009Z,6.20
2018-12-12T00:15:18.656Z,6.20
2018-12-12T00:17:47.803Z,6.10
2018-12-12T00:20:16.199Z,6.10
2018-12-12T00:22:44.603Z,6.10
2018-12-12T00:25:12.991Z,6.10
2018-12-12T00:27:41.363Z,6.00
2018-12-12T00:30:09.839Z,5.90
2018-12-12T00:32:38.215Z,5.80
2018-12-12T00:35:06.718Z,5.90
2018-12-12T00:37:35.083Z,6.00
2018-12-12T00:40:04.033Z,5.90
2018-12-12T00:42:32.424Z,5.80
2018-12-12T00:45:00.811Z,5.90
2018-12-12T00:47:29.291Z,5.90
2018-12-12T00:49:57.666Z,5.80
2018-12-12T00:52:26.067Z,5.80
2018-12-12T00:54:54.558Z,5.90
2018-12-12T00:57:23.246Z,5.80
2018-12-12T00:59:51.663Z,5.90
2018-12-12T01:02:20.057Z,5.90
2018-12-12T01:04:48.687Z,5.80
2018-12-12T01:07:17.162Z,5.70
2018-12-12T01:09:45.603Z,5.70
2018-12-12T01:12:13.986Z,5.80
2018-12-12T01:14:42.411Z,5.70
2018-12-12T01:17:10.801Z,5.70
2018-12-12T01:19:39.163Z,5.80
2018-12-12T01:22:07.635Z,5.80
2018-12-12T01:24:36.010Z,5.80
2018-12-12T01:27:04.424Z,5.70
2018-12-12T01:29:32.783Z,5.70
2018-12-12T01:32:01.624Z,5.70
2018-12-12T01:37:03.812Z,5.70
2018-12-12T01:39:32.552Z,5.50
2018-12-12T01:42:00.947Z,5.50
2018-12-12T01:44:29.363Z,5.60
2018-12-12T01:46:57.749Z,5.70
2018-12-12T01:49:26.175Z,5.80
2018-12-12T01:51:54.555Z,5.80
2018-12-12T01:54:22.949Z,5.80
2018-12-12T01:56:51.399Z,5.70
2018-12-12T01:59:19.766Z,5.60
2018-12-12T02:01:48.184Z,5.70
2018-12-12T02:04:16.546Z,5.60
2018-12-12T02:06:44.906Z,5.50
2018-12-12T02:09:13.300Z,5.50
2018-12-12T02:11:41.691Z,5.70
2018-12-12T02:14:10.094Z,5.60
2018-12-12T02:16:38.534Z,5.70
2018-12-12T02:19:07.322Z,5.70
2018-12-12T02:21:35.691Z,5.80
2018-12-12T02:24:04.385Z,5.70
2018-12-12T02:26:32.767Z,5.60
2018-12-12T02:29:01.155Z,5.60
2018-12-12T02:31:29.544Z,5.70
2018-12-12T02:33:57.931Z,5.60
2018-12-12T02:36:26.339Z,5.60
2018-12-12T02:38:54.714Z,5.60
2018-12-12T02:41:23.099Z,5.60
2018-12-12T02:43:51.929Z,5.60
2018-12-12T02:46:20.798Z,5.50
2018-12-12T02:48:49.172Z,5.60
2018-12-12T02:51:17.546Z,5.60
2018-12-12T02:53:45.948Z,5.60
2018-12-12T02:56:14.340Z,5.60
2018-12-12T02:58:42.734Z,5.60
2018-12-12T03:01:11.108Z,5.60
2018-12-12T03:03:39.511Z,5.50
2018-12-12T03:06:07.895Z,5.60
2018-12-12T03:08:36.302Z,5.50
2018-12-12T03:11:05.035Z,5.50
2018-12-12T03:13:33.430Z,5.60
2018-12-12T03:16:01.838Z,5.60
2018-12-12T03:18:30.231Z,5.50
2018-12-12T03:20:58.623Z,5.40
2018-12-12T03:23:26.995Z,5.60
2018-12-12T03:25:55.401Z,5.50
2018-12-12T03:28:23.764Z,5.50
2018-12-12T03:30:52.140Z,5.50
2018-12-12T03:33:20.517Z,5.50
2018-12-12T03:35:48.889Z,5.60
2018-12-12T03:38:17.310Z,5.60
2018-12-12T03:40:46.002Z,5.60
2018-12-12T03:43:14.374Z,5.50
2018-12-12T03:45:42.752Z,5.50
2018-12-12T03:48:11.235Z,5.50
2018-12-12T03:50:39.610Z,5.50
2018-12-12T03:53:08.024Z,5.60
2018-12-12T03:55:36.383Z,5.50
2018-12-12T03:58:04.782Z,5.50
2018-12-12T04:00:33.167Z,5.50
2018-12-12T04:03:02.204Z,5.40
2018-12-12T04:05:30.589Z,5.40
2018-12-12T04:07:58.982Z,5.40
2018-12-12T04:10:27.351Z,5.40
2018-12-12T04:12:55.717Z,5.30
2018-12-12T04:15:24.130Z,5.30
2018-12-12T04:17:52.575Z,5.30
2018-12-12T04:20:20.954Z,5.40
2018-12-12T04:22:49.321Z,5.30
2018-12-12T04:25:17.847Z,5.40
2018-12-12T04:27:46.597Z,5.50
2018-12-12T04:30:15.100Z,5.30
2018-12-12T04:32:43.513Z,5.30
2018-12-12T04:35:11.902Z,5.40
2018-12-12T04:37:40.323Z,5.40
2018-12-12T04:40:08.819Z,5.40
2018-12-12T04:42:37.288Z,5.50
2018-12-12T04:45:06.308Z,5.40
2018-12-12T04:47:34.672Z,5.40
2018-12-12T04:50:03.050Z,5.30
2018-12-12T04:52:31.432Z,5.30
2018-12-12T04:54:59.843Z,5.40
2018-12-12T04:57:28.225Z,5.40
2018-12-12T04:59:56.607Z,5.40
2018-12-12T05:02:27.914Z,5.50
2018-12-12T05:04:57.256Z,5.40
2018-12-12T05:07:25.631Z,5.40
2018-12-12T05:09:54.049Z,5.40
2018-12-12T05:12:22.429Z,5.50
2018-12-12T05:14:50.850Z,5.40
2018-12-12T05:17:19.256Z,5.20
2018-12-12T05:19:47.638Z,5.30
2018-12-12T05:22:15.998Z,5.30
2018-12-12T05:24:45.190Z,5.30
2018-12-12T05:27:13.619Z,5.30
2018-12-12T05:29:41.997Z,5.40
2018-12-12T05:32:10.403Z,5.30
2018-12-12T05:34:38.803Z,5.20
2018-12-12T05:37:07.456Z,5.30
2018-12-12T05:39:35.916Z,5.40
2018-12-12T05:42:04.318Z,5.30
2018-12-12T05:44:32.711Z,5.30
2018-12-12T05:47:01.090Z,5.30
2018-12-12T05:49:34.354Z,5.40
2018-12-12T05:52:02.884Z,5.20
2018-12-12T05:54:31.298Z,5.10
2018-12-12T05:56:59.670Z,5.20
2018-12-12T05:59:28.078Z,5.30
2018-12-12T06:01:56.454Z,5.30
2018-12-12T06:04:24.814Z,5.40
2018-12-12T06:06:53.183Z,5.30
2018-12-12T06:09:21.639Z,5.30
2018-12-12T06:11:50.032Z,5.40
2018-12-12T06:14:18.447Z,5.40
2018-12-12T06:16:46.895Z,5.30
2018-12-12T06:19:15.321Z,5.20
2018-12-12T06:21:43.747Z,5.20
2018-12-12T06:24:12.115Z,5.30
2018-12-12T06:26:40.526Z,5.30
2018-12-12T06:29:08.924Z,5.30
2018-12-12T06:31:37.307Z,5.40
2018-12-12T06:34:05.919Z,5.30
2018-12-12T06:36:34.341Z,5.30
2018-12-12T06:39:04.191Z,5.30
2018-12-12T06:41:32.579Z,5.30
2018-12-12T06:44:00.987Z,5.20
2018-12-12T06:46:29.606Z,5.30
2018-12-12T06:48:58.139Z,5.30
2018-12-12T06:51:26.649Z,5.30
2018-12-12T06:53:55.992Z,5.30
2018-12-12T06:56:24.402Z,5.30
2018-12-12T06:58:52.801Z,5.30
2018-12-12T07:01:21.254Z,5.40
2018-12-12T07:03:49.643Z,5.50
2018-12-12T07:06:18.063Z,5.50
2018-12-12T07:08:46.434Z,5.50
2018-12-12T07:11:14.839Z,5.50
2018-12-12T07:13:43.218Z,5.50
2018-12-12T07:16:11.649Z,5.50
2018-12-12T07:18:40.021Z,5.50
2018-12-12T07:21:08.397Z,5.40
2018-12-12T07:23:36.771Z,5.30
2018-12-12T07:26:05.367Z,5.40
2018-12-12T07:28:33.838Z,5.40
2018-12-12T07:31:02.233Z,5.50
2018-12-12T07:33:30.625Z,5.60
2018-12-12T07:35:59.667Z,5.60
2018-12-12T07:38:28.195Z,5.60
2018-12-12T07:40:56.554Z,5.60
2018-12-12T07:43:24.951Z,5.60
2018-12-12T07:45:53.622Z,5.50
2018-12-12T07:48:22.928Z,5.40
2018-12-12T07:50:51.310Z,5.40
2018-12-12T07:53:19.773Z,5.40
2018-12-12T07:55:48.142Z,5.50
2018-12-12T07:58:16.523Z,5.60
2018-12-12T08:00:45.047Z,5.50
2018-12-12T08:03:13.431Z,5.50
2018-12-12T08:05:41.830Z,5.50
2018-12-12T08:08:10.206Z,5.60
2018-12-12T08:10:38.578Z,5.70
2018-12-12T08:13:06.965Z,5.60
2018-12-12T08:15:35.355Z,5.60
2018-12-12T08:18:03.896Z,5.70
2018-12-12T08:20:32.349Z,5.60
2018-12-12T08:23:01.047Z,5.70
2018-12-12T08:25:29.526Z,5.60
2018-12-12T08:27:57.943Z,5.70
2018-12-12T08:30:26.343Z,5.70
2018-12-12T08:32:54.731Z,5.80
2018-12-12T08:35:23.170Z,5.80
2018-12-12T08:37:51.883Z,5.80
2018-12-12T08:40:20.440Z,5.90
2018-12-12T08:42:48.833Z,5.90
2018-12-12T08:45:17.235Z,5.90
2018-12-12T08:47:45.779Z,5.90
2018-12-12T08:50:14.186Z,5.90
2018-12-12T08:52:42.567Z,5.80
2018-12-12T08:55:17.423Z,5.90
2018-12-12T08:57:41.463Z,6.00
2018-12-12T09:00:10.112Z,5.90
2018-12-12T09:02:38.604Z,5.90
2018-12-12T09:05:07.289Z,5.90
2018-12-12T09:07:35.692Z,6.00
2018-12-12T09:10:05.481Z,6.00
2018-12-12T09:12:33.864Z,6.10
2018-12-12T09:15:02.308Z,6.20
2018-12-12T09:17:30.903Z,6.30
2018-12-12T09:19:59.304Z,6.50
2018-12-12T09:22:27.788Z,6.60
2018-12-12T09:24:56.181Z,6.60
2018-12-12T09:27:24.586Z,6.50
2018-12-12T09:29:52.954Z,6.50
2018-12-12T09:32:21.348Z,6.50
2018-12-12T09:34:49.718Z,6.60
2018-12-12T09:37:18.303Z,6.50
2018-12-12T09:39:46.727Z,6.50
2018-12-12T09:42:15.103Z,6.60
2018-12-12T09:44:43.475Z,6.60
2018-12-12T09:47:11.891Z,6.60
2018-12-12T09:49:40.321Z,6.70
2018-12-12T09:52:08.706Z,6.70
2018-12-12T09:54:37.174Z,6.70
2018-12-12T09:57:05.550Z,6.70
2018-12-12T09:59:33.943Z,6.80
2018-12-12T10:02:02.312Z,6.70
2018-12-12T10:04:30.692Z,6.80
2018-12-12T10:06:59.073Z,6.80
2018-12-12T10:09:27.622Z,6.60
2018-12-12T10:11:56.519Z,6.70
2018-12-12T10:14:24.945Z,6.90
2018-12-12T10:16:53.494Z,6.90
2018-12-12T10:19:21.886Z,7.00
2018-12-12T10:21:50.679Z,6.90
2018-12-12T10:24:19.377Z,7.00
2018-12-12T10:26:47.768Z,7.10
2018-12-12T10:29:16.200Z,7.10
2018-12-12T10:31:44.735Z,7.00
2018-12-12T10:34:13.262Z,7.00
2018-12-12T10:36:41.656Z,6.90
2018-12-12T10:39:10.048Z,6.90
2018-12-12T10:41:38.430Z,6.80
2018-12-12T10:44:06.926Z,7.00
2018-12-12T10:46:35.354Z,7.40
2018-12-12T10:49:03.731Z,7.80
2018-12-12T10:51:32.233Z,8.50
2018-12-12T10:54:00.615Z,8.70
2018-12-12T10:56:28.986Z,8.90
2018-12-12T10:58:57.422Z,8.80
2018-12-12T11:01:27.684Z,8.80
2018-12-12T11:03:56.103Z,9.70
2018-12-12T11:06:24.595Z,10.00
2018-12-12T11:08:53.005Z,10.70
2018-12-12T11:11:21.405Z,10.90
2018-12-12T11:13:49.840Z,10.80
2018-12-12T11:16:18.386Z,10.60
2018-12-12T11:18:46.764Z,10.40
2018-12-12T11:21:15.284Z,10.00
2018-12-12T11:23:43.689Z,9.80
2018-12-12T11:26:12.109Z,9.40
2018-12-12T11:28:40.507Z,9.30
2018-12-12T11:31:09.054Z,9.20
2018-12-12T11:33:37.427Z,9.00
2018-12-12T11:36:05.821Z,9.30
2018-12-12T11:38:34.220Z,9.40
2018-12-12T11:41:02.607Z,9.90
2018-12-12T11:43:31.006Z,10.00
2018-12-12T11:45:59.409Z,10.00
2018-12-12T11:48:27.786Z,10.40
2018-12-12T11:50:56.176Z,10.00
2018-12-12T11:53:24.587Z,9.80
2018-12-12T11:55:52.979Z,9.40
2018-12-12T11:58:21.362Z,9.00
2018-12-12T12:00:49.746Z,8.80
2018-12-12T12:03:18.122Z,8.80
2018-12-12T12:05:46.588Z,8.60
2018-12-12T12:08:14.994Z,8.60
2018-12-12T12:10:43.454Z,8.60
2018-12-12T12:13:11.931Z,8.40
2018-12-12T12:15:40.334Z,8.50
2018-12-12T12:18:08.790Z,8.50
2018-12-12T12:20:37.476Z,8.50
2018-12-12T12:23:05.856Z,9.00
2018-12-12T12:25:34.339Z,9.80
2018-12-12T12:28:02.793Z,10.60
2018-12-12T12:30:31.194Z,11.90
2018-12-12T12:32:59.593Z,12.30
2018-12-12T12:35:28.103Z,12.20
2018-12-12T12:37:56.487Z,11.70
2018-12-12T12:40:24.875Z,11.20
2018-12-12T12:42:53.250Z,10.80
2018-12-12T12:45:22.701Z,10.20
2018-12-12T12:47:51.211Z,9.80
2018-12-12T12:50:19.621Z,9.20
2018-12-12T12:52:47.991Z,9.00
2018-12-12T12:55:16.904Z,8.80
2018-12-12T12:57:45.280Z,8.60
2018-12-12T13:00:13.646Z,8.60
2018-12-12T13:02:42.112Z,8.20
2018-12-12T13:05:10.491Z,8.20
2018-12-12T13:07:38.890Z,8.20
2018-12-12T13:10:11.469Z,8.10
2018-12-12T13:12:38.047Z,8.00
2018-12-12T13:15:07.040Z,8.00
2018-12-12T13:17:35.462Z,8.00
2018-12-12T13:20:04.251Z,8.00
2018-12-12T13:22:32.627Z,7.90
2018-12-12T13:25:01.175Z,7.80
2018-12-12T13:27:29.563Z,7.70
2018-12-12T13:29:58.087Z,7.80
2018-12-12T13:32:26.484Z,7.50
2018-12-12T13:34:54.932Z,7.50
2018-12-12T13:37:23.445Z,7.50
2018-12-12T13:39:51.822Z,7.50
2018-12-12T13:42:20.239Z,7.50
2018-12-12T13:44:48.643Z,7.40
2018-12-12T13:47:17.454Z,7.30
2018-12-12T13:49:46.095Z,7.30
2018-12-12T13:52:15.155Z,7.30
2018-12-12T13:54:43.591Z,7.30
2018-12-12T13:57:12.087Z,7.40
2018-12-12T13:59:40.611Z,7.30
2018-12-12T14:02:09.072Z,7.20
2018-12-12T14:04:37.470Z,7.20
2018-12-12T14:07:05.914Z,7.10
2018-12-12T14:09:34.460Z,6.90
2018-12-12T14:12:02.851Z,6.90
2018-12-12T14:14:31.404Z,6.90
2018-12-12T14:16:59.832Z,6.90
2018-12-12T14:19:28.900Z,6.90
2018-12-12T14:21:57.324Z,6.90
2018-12-12T14:24:25.739Z,7.10
2018-12-12T14:26:54.162Z,7.10
2018-12-12T14:29:22.570Z,7.10
2018-12-12T14:31:51.011Z,7.10
2018-12-12T14:34:28.996Z,7.10
2018-12-12T14:36:52.945Z,7.00
2018-12-12T14:39:21.318Z,6.90
2018-12-12T14:41:49.690Z,6.80
2018-12-12T14:44:18.306Z,6.90
2018-12-12T14:46:46.743Z,6.90
2018-12-12T14:49:15.186Z,6.80
2018-12-12T14:51:44.030Z,6.90
2018-12-12T14:54:12.444Z,6.80
2018-12-12T14:56:41.362Z,6.70
2018-12-12T14:59:09.799Z,6.40
2018-12-12T15:01:38.159Z,6.30
2018-12-12T15:04:07.030Z,6.40
2018-12-12T15:06:35.563Z,6.40
2018-12-12T15:09:07.230Z,6.50
2018-12-12T15:11:35.655Z,6.50
2018-12-12T15:14:04.090Z,6.60
2018-12-12T15:16:32.529Z,6.60
2018-12-12T15:19:00.959Z,6.60
2018-12-12T15:21:29.402Z,6.50
2018-12-12T15:23:58.028Z,6.50
2018-12-12T15:26:26.400Z,6.50
2018-12-12T15:28:54.870Z,6.50
2018-12-12T15:31:23.317Z,6.40
2018-12-12T15:33:51.790Z,6.40
2018-12-12T15:36:20.781Z,6.40
2018-12-12T15:38:49.215Z,6.40
2018-12-12T15:41:18.226Z,6.30
2018-12-12T15:43:46.639Z,6.30
2018-12-12T15:46:15.095Z,6.30
2018-12-12T15:48:43.509Z,6.20
2018-12-12T15:51:11.934Z,6.20
2018-12-12T15:53:40.330Z,6.30
2018-12-12T15:56:08.740Z,6.20
2018-12-12T15:58:37.150Z,6.30
2018-12-12T16:01:05.629Z,6.20
2018-12-12T16:03:34.039Z,6.20
2018-12-12T16:06:02.850Z,6.20
2018-12-12T16:08:31.258Z,6.20
2018-12-12T16:10:59.638Z,6.20
2018-12-12T16:13:28.083Z,6.10
2018-12-12T16:15:56.515Z,6.00
2018-12-12T16:18:25.018Z,5.90
2018-12-12T16:20:53.534Z,6.00
2018-12-12T16:23:21.981Z,6.00
2018-12-12T16:25:50.360Z,6.00
2018-12-12T16:28:18.779Z,6.00
2018-12-12T16:30:47.151Z,6.00
2018-12-12T16:33:15.597Z,6.00
2018-12-12T16:35:44.107Z,6.00
2018-12-12T16:38:12.511Z,6.10
2018-12-12T16:40:40.935Z,6.10
2018-12-12T16:43:09.356Z,6.00
2018-12-12T16:45:37.909Z,5.80
2018-12-12T16:48:06.358Z,5.90
2018-12-12T16:50:34.795Z,6.00
2018-12-12T16:53:03.357Z,6.10
2018-12-12T16:55:31.926Z,6.10
2018-12-12T16:58:00.392Z,6.20
2018-12-12T17:00:28.860Z,6.20
2018-12-12T17:02:57.283Z,6.20
2018-12-12T17:05:25.742Z,6.30
2018-12-12T17:07:54.308Z,6.40
2018-12-12T17:10:22.809Z,6.30
2018-12-12T17:12:51.615Z,6.30
2018-12-12T17:15:20.222Z,6.20
2018-12-12T17:17:49.239Z,6.20
2018-12-12T17:20:17.898Z,6.20
2018-12-12T17:22:46.296Z,6.10
2018-12-12T17:25:14.734Z,6.20
2018-12-12T17:27:43.652Z,6.10
2018-12-12T17:30:12.222Z,6.00
2018-12-12T17:32:40.647Z,6.10
2018-12-12T17:35:09.199Z,6.10
2018-12-12T17:37:37.984Z,6.20
2018-12-12T17:40:06.812Z,6.00
2018-12-12T17:42:35.327Z,6.00
2018-12-12T17:45:04.257Z,6.00
2018-12-12T17:47:32.967Z,6.10
2018-12-12T17:50:01.642Z,6.00
2018-12-12T17:52:30.071Z,6.10
2018-12-12T17:54:58.546Z,6.10
2018-12-12T17:57:27.091Z,6.00
2018-12-12T17:59:55.699Z,6.10
2018-12-12T18:02:24.205Z,6.10
2018-12-12T18:04:52.744Z,6.10
2018-12-12T18:07:21.212Z,6.10
2018-12-12T18:09:49.669Z,6.20
2018-12-12T18:12:18.143Z,6.10
2018-12-12T18:14:53.329Z,6.00
2018-12-12T18:17:21.986Z,5.90
2018-12-12T18:19:51.521Z,6.00
2018-12-12T18:22:20.386Z,6.00
2018-12-12T18:24:49.210Z,6.00
2018-12-12T18:27:17.965Z,6.10
2018-12-12T18:29:47.784Z,6.10
2018-12-12T18:32:16.616Z,6.20
2018-12-12T18:34:45.384Z,6.20
2018-12-12T18:37:14.020Z,6.30
2018-12-12T18:39:42.838Z,6.30
2018-12-12T18:42:11.705Z,6.30
2018-12-12T18:44:40.535Z,6.10
2018-12-12T18:47:09.299Z,6.10
2018-12-12T18:49:38.083Z,6.20
2018-12-12T18:52:06.686Z,6.20
2018-12-12T18:54:35.307Z,5.90
2018-12-12T18:57:04.453Z,5.90
2018-12-12T18:59:33.063Z,5.90
2018-12-12T19:02:01.858Z,6.00
2018-12-12T19:04:30.441Z,6.00
2018-12-12T19:06:59.825Z,6.00
2018-12-12T19:09:28.456Z,5.90
2018-12-12T19:11:57.961Z,5.90
2018-12-12T19:14:26.652Z,5.80
2018-12-12T19:16:55.463Z,5.80
2018-12-12T19:19:24.286Z,5.80
2018-12-12T19:21:52.924Z,5.80
2018-12-12T19:24:22.758Z,5.80
2018-12-12T19:26:53.182Z,5.80
2018-12-12T19:29:23.130Z,5.90
2018-12-12T19:31:52.664Z,5.90
2018-12-12T19:34:21.402Z,6.00
2018-12-12T19:36:50.400Z,5.90
2018-12-12T19:39:19.816Z,5.90
2018-12-12T19:41:49.432Z,5.90
2018-12-12T19:44:18.646Z,5.80
2018-12-12T19:46:47.424Z,5.90
2018-12-12T19:49:17.608Z,5.90
2018-12-12T19:51:46.361Z,6.00
2018-12-12T19:54:15.415Z,5.90
2018-12-12T19:56:45.779Z,5.90
2018-12-12T19:59:15.968Z,5.90
2018-12-12T20:01:46.637Z,5.90
2018-12-12T20:04:16.810Z,6.00
2018-12-12T20:06:46.888Z,6.00
2018-12-12T20:09:16.571Z,5.90
2018-12-12T20:11:45.322Z,5.90
2018-12-12T20:14:14.500Z,5.90
2018-12-12T20:16:44.578Z,5.90
2018-12-12T20:19:14.840Z,5.80
2018-12-12T20:21:44.492Z,5.80
2018-12-12T20:24:13.999Z,5.80
2018-12-12T20:26:44.613Z,5.80
2018-12-12T20:29:15.111Z,5.80
2018-12-12T20:31:46.072Z,5.90
2018-12-12T20:34:14.834Z,5.80
2018-12-12T20:36:45.968Z,5.80
2018-12-12T20:39:18.706Z,5.70
2018-12-12T20:41:47.978Z,5.70
2018-12-12T20:44:16.874Z,5.70
2018-12-12T20:46:47.100Z,5.70
2018-12-12T20:49:17.225Z,5.80
2018-12-12T20:51:46.140Z,5.90
2018-12-12T20:54:20.047Z,5.80
2018-12-12T20:56:49.937Z,5.80
2018-12-12T20:59:20.697Z,5.70
2018-12-12T21:01:49.409Z,5.80
2018-12-12T21:04:18.118Z,5.80
2018-12-12T21:09:20.082Z,5.80
2018-12-12T21:11:48.688Z,5.60
2018-12-12T21:14:18.943Z,5.50
2018-12-12T21:16:49.568Z,5.50
2018-12-12T21:19:18.957Z,5.50
2018-12-12T21:21:47.657Z,5.50
2018-12-12T21:24:16.465Z,5.50
2018-12-12T21:26:46.120Z,5.40
2018-12-12T21:29:14.724Z,5.20
2018-12-12T21:31:44.507Z,5.10
2018-12-12T21:34:14.581Z,5.00
2018-12-12T21:36:44.444Z,5.00
2018-12-12T21:39:13.578Z,5.10
2018-12-12T21:41:43.099Z,5.10
2018-12-12T21:44:12.888Z,5.00
2018-12-12T21:46:42.244Z,5.10
2018-12-12T21:49:12.166Z,5.00
2018-12-12T21:51:41.458Z,4.80
2018-12-12T21:54:09.985Z,5.00
2018-12-12T21:56:38.730Z,5.00
2018-12-12T21:59:07.304Z,5.00
2018-12-12T22:01:35.854Z,4.90
2018-12-12T22:04:04.393Z,5.00
2018-12-12T22:06:33.570Z,5.10
2018-12-12T22:09:02.169Z,5.20
2018-12-12T22:11:30.744Z,5.10
2018-12-12T22:13:59.314Z,5.00
2018-12-12T22:16:27.854Z,5.00
2018-12-12T22:18:56.311Z,5.10
2018-12-12T22:21:24.837Z,5.10
2018-12-12T22:23:53.270Z,5.10
2018-12-12T22:26:21.647Z,5.10
2018-12-12T22:28:50.060Z,5.00
2018-12-12T22:31:18.454Z,4.80
2018-12-12T22:33:46.846Z,4.80
2018-12-12T22:36:15.229Z,4.70
2018-12-12T22:38:43.650Z,4.80
2018-12-12T22:41:12.102Z,4.70
2018-12-12T22:43:40.499Z,4.50
2018-12-12T22:46:08.909Z,4.50
2018-12-12T22:48:37.294Z,4.50
2018-12-12T22:51:05.881Z,4.50
2018-12-12T22:53:34.326Z,4.40
2018-12-12T22:56:02.784Z,4.40
2018-12-12T22:58:31.220Z,4.40
2018-12-12T23:12:21.630Z,4.20
2018-12-12T23:14:50.970Z,3.50
2018-12-12T23:17:19.432Z,3.60
2018-12-12T23:19:47.829Z,3.70
2018-12-12T23:22:16.213Z,3.80
2018-12-12T23:24:44.610Z,3.80
2018-12-12T23:27:13.035Z,3.80
2018-12-12T23:29:41.431Z,3.80
2018-12-12T23:32:09.855Z,3.80
2018-12-12T23:34:38.819Z,3.80
2018-12-12T23:37:07.204Z,3.80
2018-12-12T23:39:35.672Z,3.80
2018-12-12T23:42:04.167Z,3.70
2018-12-12T23:44:32.609Z,3.70
2018-12-12T23:47:00.975Z,3.60
2018-12-12T23:49:29.343Z,3.60
2018-12-12T23:51:57.735Z,3.70
2018-12-12T23:54:26.133Z,3.70
2018-12-12T23:56:54.775Z,3.60
2018-12-12T23:59:23.132Z,3.60
